createdAt,value
2023-03-11T00:01:30.994Z,19.27
2023-03-11T00:04:00.895Z,19.42
2023-03-11T00:06:28.376Z,19.27
2023-03-11T00:08:56.057Z,18.60
2023-03-11T00:11:23.819Z,20.35
2023-03-11T00:13:51.062Z,15.98
2023-03-11T00:16:18.577Z,16.30
2023-03-11T00:18:46.095Z,16.13
2023-03-11T00:21:18.472Z,20.13
2023-03-11T00:23:46.397Z,21.15
2023-03-11T00:26:14.684Z,18.55
2023-03-11T00:28:42.256Z,17.75
2023-03-11T00:31:11.055Z,16.52
2023-03-11T00:33:41.935Z,15.75
2023-03-11T00:36:25.583Z,13.10
2023-03-11T00:38:52.944Z,15.15
2023-03-11T00:41:20.567Z,14.00
2023-03-11T00:43:50.671Z,15.73
2023-03-11T00:46:18.648Z,15.07
2023-03-11T00:48:46.565Z,13.77
2023-03-11T00:51:16.109Z,17.00
2023-03-11T00:53:43.535Z,13.90
2023-03-11T00:56:13.318Z,17.65
2023-03-11T00:58:41.498Z,16.77
2023-03-11T01:01:11.289Z,16.40
2023-03-11T01:03:44.594Z,13.55
2023-03-11T01:06:14.445Z,14.10
2023-03-11T01:08:42.427Z,15.40
2023-03-11T01:11:12.327Z,14.30
2023-03-11T01:13:40.568Z,15.07
2023-03-11T01:16:09.472Z,13.75
2023-03-11T01:18:36.792Z,14.60
2023-03-11T01:21:04.650Z,14.05
2023-03-11T01:23:32.858Z,15.90
2023-03-11T01:26:00.304Z,14.82
2023-03-11T01:28:27.779Z,13.65
2023-03-11T01:30:55.591Z,14.57
2023-03-11T01:33:22.868Z,13.23
2023-03-11T01:35:52.714Z,13.68
2023-03-11T01:38:20.444Z,13.07
2023-03-11T01:40:50.431Z,12.68
2023-03-11T01:43:59.308Z,14.15
2023-03-11T01:46:29.157Z,15.65
2023-03-11T01:49:02.499Z,16.85
2023-03-11T01:51:36.198Z,18.85
2023-03-11T01:54:14.011Z,16.17
2023-03-11T01:56:42.491Z,17.08
2023-03-11T01:59:14.456Z,16.15
2023-03-11T02:01:59.265Z,16.73
2023-03-11T02:04:28.740Z,18.58
2023-03-11T02:06:59.122Z,18.15
2023-03-11T02:09:27.181Z,15.35
2023-03-11T02:11:55.071Z,18.00
2023-03-11T02:14:22.301Z,18.15
2023-03-11T02:16:49.563Z,16.38
2023-03-11T02:19:41.765Z,16.10
2023-03-11T02:22:10.679Z,17.95
2023-03-11T02:24:41.582Z,16.15
2023-03-11T02:27:10.832Z,13.02
2023-03-11T02:29:38.398Z,15.40
2023-03-11T02:32:09.034Z,15.35
2023-03-11T02:34:39.240Z,13.82
2023-03-11T02:37:12.567Z,15.43
2023-03-11T02:39:42.870Z,15.20
2023-03-11T02:42:18.735Z,12.70
2023-03-11T02:44:49.947Z,13.48
2023-03-11T02:47:19.665Z,12.57
2023-03-11T02:49:47.725Z,14.63
2023-03-11T02:52:15.302Z,12.23
2023-03-11T02:54:42.747Z,14.95
2023-03-11T02:57:12.679Z,10.50
2023-03-11T02:59:40.046Z,10.27
2023-03-11T03:02:07.500Z,9.43
2023-03-11T03:04:34.855Z,13.15
2023-03-11T03:07:02.306Z,8.52
2023-03-11T03:09:29.977Z,9.63
2023-03-11T03:11:57.351Z,12.60
2023-03-11T03:14:24.679Z,7.88
2023-03-11T03:16:52.253Z,7.78
2023-03-11T03:19:19.878Z,7.90
2023-03-11T03:21:47.516Z,7.47
2023-03-11T03:24:16.054Z,5.97
2023-03-11T03:26:43.402Z,8.25
2023-03-11T03:29:10.547Z,6.28
2023-03-11T03:31:39.130Z,6.28
2023-03-11T03:34:06.363Z,5.30
2023-03-11T03:36:33.806Z,6.32
2023-03-11T03:39:01.850Z,6.05
2023-03-11T03:41:29.731Z,6.28
2023-03-11T03:43:57.634Z,6.75
2023-03-11T03:46:25.328Z,7.10
2023-03-11T03:48:52.756Z,7.53
2023-03-11T03:51:22.943Z,5.43
2023-03-11T03:53:50.946Z,5.82
2023-03-11T03:56:19.211Z,4.78
2023-03-11T03:58:46.869Z,5.65
2023-03-11T04:01:16.604Z,5.90
2023-03-11T04:03:44.629Z,8.25
2023-03-11T04:06:30.483Z,7.25
2023-03-11T04:08:57.917Z,8.48
2023-03-11T04:11:26.625Z,10.60
2023-03-11T04:13:56.226Z,9.27
2023-03-11T04:16:27.483Z,6.90
2023-03-11T04:18:55.853Z,6.43
2023-03-11T04:21:23.420Z,10.23
2023-03-11T04:23:50.855Z,5.97
2023-03-11T04:26:18.512Z,8.68
2023-03-11T04:28:46.407Z,5.53
2023-03-11T04:31:14.288Z,5.32
2023-03-11T04:33:42.468Z,5.35
2023-03-11T04:36:14.541Z,6.72
2023-03-11T04:38:42.014Z,5.00
2023-03-11T04:41:09.510Z,3.78
2023-03-11T04:43:36.891Z,4.55
2023-03-11T04:46:04.543Z,4.75
2023-03-11T04:48:32.738Z,4.32
2023-03-11T04:51:00.153Z,4.32
2023-03-11T04:53:27.618Z,4.25
2023-03-11T04:55:57.790Z,4.93
2023-03-11T04:58:25.473Z,4.28
2023-03-11T05:00:53.593Z,4.85
2023-03-11T05:03:21.460Z,4.70
2023-03-11T05:05:54.935Z,3.22
2023-03-11T05:08:22.602Z,3.55
2023-03-11T05:10:51.646Z,4.65
2023-03-11T05:13:20.235Z,6.85
2023-03-11T05:15:48.156Z,7.60
2023-03-11T05:18:16.504Z,4.90
2023-03-11T05:20:44.451Z,5.53
2023-03-11T05:23:12.450Z,7.25
2023-03-11T05:25:40.023Z,6.28
2023-03-11T05:28:07.467Z,5.00
2023-03-11T05:30:35.251Z,5.40
2023-03-11T05:33:02.794Z,5.97
2023-03-11T05:35:30.501Z,5.05
2023-03-11T05:37:58.264Z,4.28
2023-03-11T05:40:25.989Z,4.72
2023-03-11T05:42:53.476Z,40.40
2023-03-11T05:45:21.825Z,37.17
2023-03-11T05:47:50.418Z,24.20
2023-03-11T05:50:18.402Z,12.50
2023-03-11T05:52:47.123Z,6.40
2023-03-11T05:55:14.584Z,6.00
2023-03-11T05:57:41.627Z,4.85
2023-03-11T06:00:12.597Z,7.47
2023-03-11T06:02:41.510Z,10.13
2023-03-11T06:05:11.084Z,5.00
2023-03-11T06:07:42.631Z,4.85
2023-03-11T06:10:10.336Z,5.00
2023-03-11T06:12:38.783Z,3.95
2023-03-11T06:15:08.222Z,5.55
2023-03-11T06:17:35.428Z,7.05
2023-03-11T06:20:02.546Z,5.30
2023-03-11T06:22:29.662Z,6.07
2023-03-11T06:24:58.821Z,5.65
2023-03-11T06:27:26.326Z,5.40
2023-03-11T06:29:55.139Z,4.70
2023-03-11T06:32:22.443Z,5.13
2023-03-11T06:34:53.240Z,4.72
2023-03-11T06:37:21.286Z,5.20
2023-03-11T06:39:51.963Z,5.28
2023-03-11T06:42:19.734Z,4.65
2023-03-11T06:44:50.508Z,5.78
2023-03-11T06:47:17.810Z,4.78
2023-03-11T06:49:44.947Z,5.22
2023-03-11T06:52:14.157Z,5.97
2023-03-11T06:54:41.668Z,5.07
2023-03-11T06:57:09.432Z,5.07
2023-03-11T06:59:37.161Z,5.20
2023-03-11T07:02:06.838Z,5.00
2023-03-11T07:04:34.137Z,4.25
2023-03-11T07:07:01.899Z,3.60
2023-03-11T07:09:30.764Z,4.30
2023-03-11T07:11:58.132Z,4.78
2023-03-11T07:14:25.660Z,6.28
2023-03-11T07:16:52.751Z,4.32
2023-03-11T07:19:22.223Z,4.72
2023-03-11T07:21:49.778Z,5.50
2023-03-11T07:24:17.747Z,7.20
2023-03-11T07:26:45.010Z,7.15
2023-03-11T07:29:12.454Z,6.32
2023-03-11T07:31:39.801Z,6.47
2023-03-11T07:34:11.627Z,7.68
2023-03-11T07:36:42.632Z,9.88
2023-03-11T07:39:14.884Z,8.73
2023-03-11T07:41:42.170Z,5.63
2023-03-11T07:44:11.019Z,7.72
2023-03-11T07:46:38.567Z,8.02
2023-03-11T07:49:05.684Z,7.07
2023-03-11T07:51:34.819Z,6.50
2023-03-11T07:54:03.129Z,7.70
2023-03-11T07:56:32.750Z,10.90
2023-03-11T07:59:03.597Z,5.65
2023-03-11T08:01:38.529Z,4.95
2023-03-11T08:04:08.321Z,6.38
2023-03-11T08:06:37.114Z,7.70
2023-03-11T08:09:07.401Z,5.40
2023-03-11T08:11:34.629Z,4.90
2023-03-11T08:14:02.109Z,12.73
2023-03-11T08:16:31.110Z,16.10
2023-03-11T08:18:58.119Z,11.57
2023-03-11T08:21:27.159Z,8.30
2023-03-11T08:23:57.843Z,12.45
2023-03-11T08:26:25.651Z,8.05
2023-03-11T08:28:53.176Z,10.45
2023-03-11T08:31:24.382Z,8.35
2023-03-11T08:33:53.356Z,6.87
2023-03-11T08:36:21.394Z,7.13
2023-03-11T08:38:50.924Z,9.93
2023-03-11T08:41:18.530Z,6.53
2023-03-11T08:43:46.058Z,7.45
2023-03-11T08:46:24.864Z,9.07
2023-03-11T08:48:52.730Z,6.38
2023-03-11T08:51:23.164Z,7.68
2023-03-11T08:53:51.541Z,8.70
2023-03-11T08:56:19.334Z,9.82
2023-03-11T08:58:47.710Z,10.32
2023-03-11T09:01:14.994Z,8.55
2023-03-11T09:03:42.251Z,4.40
2023-03-11T09:06:12.295Z,6.53
2023-03-11T09:08:39.937Z,4.75
2023-03-11T09:11:08.095Z,5.72
2023-03-11T09:13:35.881Z,3.28
2023-03-11T09:16:06.023Z,4.05
2023-03-11T09:18:33.273Z,3.30
2023-03-11T09:21:01.331Z,7.13
2023-03-11T09:23:30.710Z,4.93
2023-03-11T09:25:58.840Z,8.15
2023-03-11T09:28:25.942Z,9.13
2023-03-11T09:30:53.653Z,6.82
2023-03-11T09:33:21.323Z,6.93
2023-03-11T09:35:49.996Z,8.05
2023-03-11T09:38:17.383Z,7.10
2023-03-11T09:40:59.517Z,7.70
2023-03-11T09:43:58.669Z,6.68
2023-03-11T09:47:06.530Z,5.82
2023-03-11T09:50:13.281Z,7.25
2023-03-11T09:53:11.038Z,5.75
2023-03-11T09:55:45.215Z,4.85
2023-03-11T09:58:17.277Z,6.90
2023-03-11T10:03:25.966Z,7.10
2023-03-11T10:06:25.898Z,7.82
2023-03-11T10:08:52.980Z,7.80
2023-03-11T10:11:47.206Z,5.40
2023-03-11T10:14:17.319Z,5.55
2023-03-11T10:17:08.697Z,6.47
2023-03-11T10:20:19.035Z,7.25
2023-03-11T10:23:08.536Z,5.18
2023-03-11T10:26:10.541Z,4.93
2023-03-11T10:28:45.621Z,4.53
2023-03-11T10:31:26.793Z,3.67
2023-03-11T10:34:19.106Z,5.72
2023-03-11T10:37:11.258Z,5.75
2023-03-11T10:39:39.038Z,5.40
2023-03-11T10:42:12.429Z,4.85
2023-03-11T10:44:41.457Z,7.90
2023-03-11T10:47:23.140Z,7.05
2023-03-11T10:49:51.048Z,5.97
2023-03-11T10:52:18.190Z,6.90
2023-03-11T10:54:48.053Z,4.53
2023-03-11T10:57:34.189Z,8.23
2023-03-11T11:00:09.712Z,6.40
2023-03-11T11:02:43.691Z,8.48
2023-03-11T11:05:22.898Z,6.00
2023-03-11T11:07:53.308Z,7.50
2023-03-11T11:10:25.425Z,7.32
2023-03-11T11:13:14.384Z,8.52
2023-03-11T11:15:50.867Z,7.63
2023-03-11T11:18:30.272Z,7.75
2023-03-11T11:21:07.098Z,6.18
2023-03-11T11:23:40.057Z,6.55
2023-03-11T11:26:22.085Z,6.10
2023-03-11T11:29:09.033Z,7.03
2023-03-11T11:31:41.355Z,7.00
2023-03-11T11:34:34.173Z,6.25
2023-03-11T11:37:05.838Z,8.68
2023-03-11T11:39:53.220Z,6.63
2023-03-11T11:42:21.288Z,6.60
2023-03-11T11:44:52.087Z,5.32
2023-03-11T11:47:30.236Z,5.65
2023-03-11T11:50:01.033Z,4.90
2023-03-11T11:52:31.885Z,6.13
2023-03-11T11:55:05.508Z,10.75
2023-03-11T11:57:32.881Z,7.15
2023-03-11T12:00:00.112Z,6.00
2023-03-11T12:03:06.734Z,5.78
2023-03-11T12:05:38.484Z,6.15
2023-03-11T12:08:48.219Z,4.90
2023-03-11T12:11:44.565Z,5.95
2023-03-11T12:14:24.631Z,5.88
2023-03-11T12:16:59.687Z,5.57
2023-03-11T12:19:37.601Z,3.92
2023-03-11T12:22:14.957Z,5.35
2023-03-11T12:24:47.927Z,6.00
2023-03-11T12:27:25.537Z,3.90
2023-03-11T12:29:58.302Z,4.75
2023-03-11T12:32:42.430Z,4.95
2023-03-11T12:35:20.341Z,3.13
2023-03-11T12:38:01.585Z,3.30
2023-03-11T12:40:57.230Z,3.50
2023-03-11T12:43:36.108Z,3.05
2023-03-11T12:46:05.163Z,10.27
2023-03-11T12:48:33.783Z,3.78
2023-03-11T12:51:17.591Z,5.47
2023-03-11T12:53:49.246Z,4.80
2023-03-11T12:56:38.202Z,4.80
2023-03-11T12:59:30.438Z,4.25
2023-03-11T13:02:12.165Z,4.43
2023-03-11T13:04:57.998Z,4.18
2023-03-11T13:07:43.644Z,4.18
2023-03-11T13:10:40.199Z,4.75
2023-03-11T13:13:25.691Z,4.82
2023-03-11T13:15:53.200Z,4.93
2023-03-11T13:18:24.336Z,9.07
2023-03-11T13:20:56.197Z,5.57
2023-03-11T13:23:27.746Z,4.40
2023-03-11T13:25:54.741Z,7.35
2023-03-11T13:28:27.669Z,7.65
2023-03-11T13:31:16.198Z,9.07
2023-03-11T13:33:53.594Z,2.88
2023-03-11T13:36:44.849Z,8.52
2023-03-11T13:39:42.459Z,5.93
2023-03-11T13:42:25.147Z,3.92
2023-03-11T13:44:52.814Z,4.13
2023-03-11T13:47:21.074Z,7.32
2023-03-11T13:49:51.189Z,3.75
2023-03-11T13:52:33.697Z,6.18
2023-03-11T13:57:34.576Z,5.95
2023-03-11T14:00:17.879Z,10.05
2023-03-11T14:02:57.901Z,4.80
2023-03-11T14:05:27.696Z,4.97
2023-03-11T14:07:54.941Z,6.10
2023-03-11T14:10:23.662Z,5.82
2023-03-11T14:12:51.335Z,5.78
2023-03-11T14:15:26.959Z,5.05
2023-03-11T14:17:54.886Z,4.95
2023-03-11T14:20:25.464Z,3.90
2023-03-11T14:22:57.099Z,4.50
2023-03-11T14:25:29.039Z,7.17
2023-03-11T14:28:03.319Z,10.50
2023-03-11T14:30:34.381Z,3.40
2023-03-11T14:33:24.096Z,3.97
2023-03-11T14:35:59.962Z,4.18
2023-03-11T14:38:30.070Z,5.60
2023-03-11T14:40:59.643Z,4.07
2023-03-11T14:43:37.352Z,4.75
2023-03-11T14:46:05.862Z,6.90
2023-03-11T14:48:39.812Z,6.95
2023-03-11T14:51:20.344Z,4.50
2023-03-11T14:53:51.976Z,7.53
2023-03-11T14:56:21.918Z,3.92
2023-03-11T14:59:06.719Z,2.45
2023-03-11T15:01:40.705Z,7.90
2023-03-11T15:04:14.709Z,4.13
2023-03-11T15:06:45.892Z,6.10
2023-03-11T15:09:22.489Z,6.82
2023-03-11T15:11:58.356Z,5.68
2023-03-11T15:14:33.632Z,6.47
2023-03-11T15:17:41.138Z,7.15
2023-03-11T15:20:27.928Z,3.95
2023-03-11T15:22:58.433Z,5.22
2023-03-11T15:25:25.680Z,5.78
2023-03-11T15:27:53.020Z,6.15
2023-03-11T15:30:29.370Z,4.95
2023-03-11T15:32:58.123Z,7.32
2023-03-11T15:35:27.596Z,7.45
2023-03-11T15:38:20.874Z,7.72
2023-03-11T15:41:02.429Z,9.27
2023-03-11T15:43:33.315Z,6.43
2023-03-11T15:46:01.726Z,5.85
2023-03-11T15:48:30.156Z,4.45
2023-03-11T15:50:59.335Z,6.05
2023-03-11T15:53:30.287Z,8.77
2023-03-11T15:56:11.244Z,6.20
2023-03-11T15:58:39.753Z,5.30
2023-03-11T16:01:07.604Z,6.90
2023-03-11T16:03:34.981Z,7.45
2023-03-11T16:06:04.297Z,7.57
2023-03-11T16:08:31.913Z,7.28
2023-03-11T16:10:59.321Z,8.05
2023-03-11T16:13:26.489Z,7.57
2023-03-11T16:15:56.058Z,6.57
2023-03-11T16:18:23.168Z,8.48
2023-03-11T16:20:52.574Z,6.95
2023-03-11T16:23:30.739Z,7.20
2023-03-11T16:26:01.629Z,6.80
2023-03-11T16:28:28.714Z,9.23
2023-03-11T16:30:55.919Z,7.63
2023-03-11T16:33:23.142Z,9.02
2023-03-11T16:35:50.609Z,9.60
2023-03-11T16:38:23.524Z,11.55
2023-03-11T16:41:03.169Z,8.68
2023-03-11T16:43:32.964Z,8.52
2023-03-11T16:46:00.309Z,10.48
2023-03-11T16:48:27.912Z,8.38
2023-03-11T16:50:55.574Z,8.65
2023-03-11T16:53:23.187Z,8.18
2023-03-11T16:55:50.137Z,9.25
2023-03-11T16:58:17.365Z,7.50
2023-03-11T17:00:44.700Z,8.80
2023-03-11T17:03:18.237Z,10.27
2023-03-11T17:05:48.124Z,9.07
2023-03-11T17:08:18.513Z,7.55
2023-03-11T17:10:46.881Z,7.57
2023-03-11T17:13:17.075Z,7.07
2023-03-11T17:15:45.912Z,6.32
2023-03-11T17:18:13.770Z,8.18
2023-03-11T17:21:00.209Z,7.03
2023-03-11T17:23:29.717Z,7.07
2023-03-11T17:25:56.852Z,11.45
2023-03-11T17:28:23.878Z,9.90
2023-03-11T17:30:50.950Z,11.02
2023-03-11T17:33:18.249Z,9.55
2023-03-11T17:35:46.295Z,9.43
2023-03-11T17:38:16.319Z,10.52
2023-03-11T17:40:43.641Z,6.95
2023-03-11T17:43:11.086Z,9.32
2023-03-11T17:45:39.410Z,7.28
2023-03-11T17:48:06.556Z,8.18
2023-03-11T17:50:38.748Z,8.95
2023-03-11T17:53:06.213Z,9.23
2023-03-11T17:55:34.066Z,12.68
2023-03-11T17:58:01.402Z,9.40
2023-03-11T18:00:28.400Z,9.82
2023-03-11T18:02:55.564Z,10.13
2023-03-11T18:05:22.626Z,11.02
2023-03-11T18:07:49.658Z,8.02
2023-03-11T18:10:16.902Z,9.82
2023-03-11T18:12:45.472Z,7.95
2023-03-11T18:15:14.774Z,9.32
2023-03-11T18:17:41.822Z,10.50
2023-03-11T18:20:09.804Z,9.85
2023-03-11T18:22:38.611Z,9.57
2023-03-11T18:25:10.660Z,7.93
2023-03-11T18:27:38.037Z,9.80
2023-03-11T18:30:06.246Z,11.55
2023-03-11T18:32:33.349Z,12.73
2023-03-11T18:35:00.422Z,7.68
2023-03-11T18:37:27.489Z,9.55
2023-03-11T18:39:54.472Z,13.00
2023-03-11T18:42:24.153Z,9.63
2023-03-11T18:44:51.142Z,9.43
2023-03-11T18:47:18.267Z,9.55
2023-03-11T18:49:46.510Z,10.60
2023-03-11T18:52:13.730Z,10.18
2023-03-11T18:54:40.989Z,8.27
2023-03-11T18:57:09.366Z,10.55
2023-03-11T18:59:43.021Z,13.02
2023-03-11T19:02:11.280Z,8.95
2023-03-11T19:04:38.441Z,9.48
2023-03-11T19:07:05.568Z,9.82
2023-03-11T19:09:32.662Z,9.27
2023-03-11T19:11:59.779Z,11.18
2023-03-11T19:14:26.962Z,10.45
2023-03-11T19:16:54.207Z,9.77
2023-03-11T19:19:21.541Z,10.80
2023-03-11T19:21:48.585Z,12.63
2023-03-11T19:24:15.522Z,9.65
2023-03-11T19:26:46.271Z,10.48
2023-03-11T19:29:14.374Z,12.85
2023-03-11T19:31:43.613Z,12.80
2023-03-11T19:34:10.878Z,13.43
2023-03-11T19:36:39.202Z,18.08
2023-03-11T19:39:06.397Z,14.98
2023-03-11T19:41:33.456Z,15.20
2023-03-11T19:44:01.046Z,16.40
2023-03-11T19:46:29.498Z,17.60
2023-03-11T19:48:56.953Z,12.57
2023-03-11T19:51:26.664Z,19.45
2023-03-11T19:53:55.566Z,14.57
2023-03-11T19:56:22.584Z,19.48
2023-03-11T19:58:49.799Z,18.25
2023-03-11T20:01:18.602Z,16.98
2023-03-11T20:03:45.999Z,17.65
2023-03-11T20:06:16.439Z,12.73
2023-03-11T20:08:46.096Z,14.77
2023-03-11T20:11:13.157Z,15.45
2023-03-11T20:13:42.705Z,17.75
2023-03-11T20:16:22.749Z,17.52
2023-03-11T20:18:50.691Z,18.73
2023-03-11T20:21:17.952Z,18.80
2023-03-11T20:23:45.205Z,16.90
2023-03-11T20:26:14.380Z,14.77
2023-03-11T20:28:41.987Z,18.95
2023-03-11T20:31:10.722Z,18.17
2023-03-11T20:33:38.605Z,22.63
2023-03-11T20:36:11.167Z,20.55
2023-03-11T20:38:38.651Z,23.25
2023-03-11T20:41:06.318Z,28.42
2023-03-11T20:43:33.755Z,32.42
2023-03-11T20:46:01.251Z,28.45
2023-03-11T20:48:28.619Z,26.52
2023-03-11T20:50:59.437Z,25.73
2023-03-11T20:53:26.636Z,24.90
2023-03-11T20:55:53.716Z,24.95
2023-03-11T20:58:21.043Z,28.80
2023-03-11T21:00:48.139Z,28.48
2023-03-11T21:03:15.290Z,29.27
2023-03-11T21:05:42.404Z,28.02
2023-03-11T21:08:09.471Z,25.48
2023-03-11T21:10:36.681Z,21.60
2023-03-11T21:13:04.047Z,16.70
2023-03-11T21:15:31.484Z,18.75
2023-03-11T21:17:58.451Z,22.83
2023-03-11T21:20:25.758Z,18.70
2023-03-11T21:22:55.479Z,16.15
2023-03-11T21:25:22.671Z,19.33
2023-03-11T21:27:49.730Z,18.30
2023-03-11T21:30:16.833Z,14.18
2023-03-11T21:32:44.163Z,15.32
2023-03-11T21:35:13.809Z,13.65
2023-03-11T21:37:43.425Z,13.75
2023-03-11T21:40:11.627Z,17.05
2023-03-11T21:42:38.768Z,14.68
2023-03-11T21:45:06.649Z,13.80
2023-03-11T21:47:33.889Z,11.98
2023-03-11T21:50:01.077Z,12.38
2023-03-11T21:52:28.155Z,11.90
2023-03-11T21:54:56.570Z,11.25
2023-03-11T21:57:24.021Z,12.00
2023-03-11T21:59:51.351Z,16.42
2023-03-11T22:02:18.847Z,9.95
2023-03-11T22:04:46.163Z,10.85
2023-03-11T22:07:13.534Z,11.43
2023-03-11T22:09:40.718Z,9.40
2023-03-11T22:12:08.054Z,10.32
2023-03-11T22:14:35.246Z,16.10
2023-03-11T22:17:02.618Z,10.00
2023-03-11T22:19:29.677Z,9.23
2023-03-11T22:22:00.231Z,8.93
2023-03-11T22:24:27.383Z,11.93
2023-03-11T22:26:54.437Z,11.05
2023-03-11T22:29:21.618Z,9.10
2023-03-11T22:31:48.897Z,9.07
2023-03-11T22:34:16.205Z,10.38
2023-03-11T22:36:43.221Z,13.30
2023-03-11T22:39:10.368Z,8.95
2023-03-11T22:41:37.394Z,9.27
2023-03-11T22:44:04.538Z,8.38
2023-03-11T22:46:31.779Z,8.32
2023-03-11T22:49:01.778Z,10.20
2023-03-11T22:51:28.998Z,11.77
2023-03-11T22:53:56.171Z,11.05
2023-03-11T22:56:23.284Z,14.50
2023-03-11T22:58:50.453Z,9.27
2023-03-11T23:01:17.641Z,12.20
2023-03-11T23:03:44.897Z,10.60
2023-03-11T23:06:15.175Z,11.80
2023-03-11T23:08:42.256Z,8.07
2023-03-11T23:11:14.641Z,11.05
2023-03-11T23:13:42.917Z,10.20
2023-03-11T23:16:18.664Z,7.78
2023-03-11T23:18:47.303Z,7.00
2023-03-11T23:21:20.755Z,8.80
2023-03-11T23:23:48.200Z,8.63
2023-03-11T23:26:18.867Z,7.25
2023-03-11T23:28:46.912Z,10.50
2023-03-11T23:31:17.207Z,8.55
2023-03-11T23:33:48.639Z,10.48
2023-03-11T23:36:18.255Z,8.27
2023-03-11T23:38:45.746Z,8.73
2023-03-11T23:41:15.763Z,7.15
2023-03-11T23:43:43.593Z,8.88
2023-03-11T23:46:11.975Z,6.25
2023-03-11T23:48:41.437Z,9.68
2023-03-11T23:51:09.849Z,8.48
2023-03-11T23:53:46.484Z,9.13
2023-03-11T23:56:17.118Z,10.43
2023-03-11T23:58:45.017Z,13.02
